Time;durP1;ratioP1;P1;durP2;ratioP2;P2;SDS_P1;SDS_P2;PMS_P1;PMS_P2;Temp;Humidity;BMP_temperature;BMP_pressure;BME280_temperature;BME280_humidity;BME280_pressure;Samples;Min_cycle;Max_cycle;Signal;HPM_P1;HPM_P2
2022/07/20 00:00:40;;;;;;;8.00;5.50;;;21.40;68.70;;;;;;5044434;28;20673;-84
2022/07/20 00:03:08;;;;;;;5.40;4.80;;;21.30;68.70;;;;;;5047665;28;20636;-84
2022/07/20 00:05:35;;;;;;;4.87;4.20;;;21.40;69.40;;;;;;5044127;28;20753;-84
2022/07/20 00:08:03;;;;;;;5.83;5.30;;;21.30;69.90;;;;;;5046451;28;20634;-84
2022/07/20 00:13:16;;;;;;;5.30;4.90;;;21.20;71.90;;;;;;5046759;28;20970;-83
2022/07/20 00:15:44;;;;;;;6.30;4.67;;;21.20;72.90;;;;;;5043191;28;20626;-84
2022/07/20 00:18:11;;;;;;;5.13;4.63;;;21.10;73.20;;;;;;5043711;28;20626;-85
2022/07/20 00:20:38;;;;;;;9.77;5.00;;;21.10;74.10;;;;;;5045482;28;21101;-84
2022/07/20 00:23:05;;;;;;;5.47;4.97;;;21.10;74.40;;;;;;5045691;28;20629;-84
2022/07/20 00:25:32;;;;;;;6.80;6.07;;;21.00;74.90;;;;;;5047309;28;21073;-84
2022/07/20 00:27:59;;;;;;;4.97;4.57;;;21.00;76.20;;;;;;5044303;28;20659;-84
2022/07/20 00:30:28;;;;;;;5.33;4.93;;;21.00;76.50;;;;;;5046900;28;20658;-84
2022/07/20 00:32:54;;;;;;;5.70;5.03;;;20.90;76.40;;;;;;5042790;28;20625;-84
2022/07/20 00:35:21;;;;;;;4.83;4.43;;;20.90;77.00;;;;;;5047209;28;20629;-83
2022/07/20 00:37:49;;;;;;;5.53;5.03;;;20.90;78.10;;;;;;5047470;28;21125;-84
2022/07/20 00:40:16;;;;;;;9.10;4.70;;;20.90;78.50;;;;;;5043933;28;20696;-84
2022/07/20 00:42:43;;;;;;;5.83;4.80;;;20.80;78.80;;;;;;5045685;28;20625;-84
2022/07/20 00:45:10;;;;;;;9.17;5.40;;;20.80;80.10;;;;;;5038412;28;20652;-83
2022/07/20 00:47:39;;;;;;;5.23;4.60;;;20.80;80.50;;;;;;5045274;28;20632;-84
2022/07/20 00:50:08;;;;;;;4.90;4.50;;;20.70;81.20;;;;;;5043825;28;21069;-84
2022/07/20 00:52:35;;;;;;;9.63;4.87;;;20.70;81.60;;;;;;5043503;28;20630;-84
2022/07/20 00:55:02;;;;;;;5.27;4.80;;;20.70;81.50;;;;;;5045772;28;21034;-84
2022/07/20 00:57:30;;;;;;;5.27;4.77;;;20.70;81.50;;;;;;5047427;28;20625;-84
2022/07/20 00:59:56;;;;;;;5.50;5.00;;;20.70;82.00;;;;;;5043482;28;20656;-83
2022/07/20 01:02:24;;;;;;;5.60;4.63;;;20.70;82.60;;;;;;5043329;28;20646;-84
2022/07/20 01:04:52;;;;;;;5.53;4.93;;;20.70;83.90;;;;;;5044057;28;20668;-83
2022/07/20 01:07:19;;;;;;;5.13;4.63;;;20.60;85.90;;;;;;5042254;28;20803;-84
2022/07/20 01:09:46;;;;;;;9.93;4.57;;;20.60;85.90;;;;;;5046118;28;20669;-83
2022/07/20 01:12:13;;;;;;;5.67;4.63;;;20.50;85.90;;;;;;5045670;28;20734;-83
2022/07/20 01:14:40;;;;;;;5.17;4.43;;;20.50;87.60;;;;;;5043775;28;20734;-84
2022/07/20 01:17:07;;;;;;;6.67;4.70;;;20.50;88.30;;;;;;5045362;28;20634;-83
2022/07/20 01:19:35;;;;;;;8.40;4.77;;;20.40;88.20;;;;;;5045748;28;20664;-84
2022/07/20 01:22:03;;;;;;;5.00;4.50;;;20.40;89.00;;;;;;5045222;28;21008;-83
2022/07/20 01:24:30;;;;;;;7.23;5.20;;;20.40;89.70;;;;;;5045703;28;20633;-84
2022/07/20 01:26:57;;;;;;;4.83;4.40;;;20.30;90.00;;;;;;5043694;28;20640;-84
2022/07/20 01:29:24;;;;;;;6.47;5.23;;;20.30;90.00;;;;;;5045762;28;20753;-84
2022/07/20 01:31:50;;;;;;;4.90;4.40;;;20.30;89.80;;;;;;5044254;28;20630;-84
2022/07/20 01:34:19;;;;;;;5.20;4.80;;;20.20;90.00;;;;;;5048658;28;20622;-84
2022/07/20 01:36:45;;;;;;;6.03;4.63;;;20.30;90.40;;;;;;5048467;28;20638;-84
2022/07/20 01:39:14;;;;;;;4.30;3.93;;;20.20;90.70;;;;;;5045560;28;20631;-84
2022/07/20 01:41:41;;;;;;;5.07;4.60;;;20.20;90.90;;;;;;5049145;28;20676;-83
2022/07/20 01:44:08;;;;;;;4.90;4.50;;;20.10;91.10;;;;;;5050009;28;20672;-84
2022/07/20 01:46:35;;;;;;;5.13;4.63;;;20.10;91.40;;;;;;5048661;28;20666;-84
2022/07/20 01:49:02;;;;;;;4.40;4.00;;;20.10;92.00;;;;;;5050149;28;20965;-84
2022/07/20 01:51:28;;;;;;;15.03;6.30;;;20.00;92.10;;;;;;5049745;28;20649;-84
2022/07/20 01:53:55;;;;;;;6.27;4.30;;;20.00;92.20;;;;;;5046809;28;20630;-84
2022/07/20 01:56:23;;;;;;;4.67;4.20;;;20.00;92.10;;;;;;5050196;28;20626;-84
2022/07/20 01:58:50;;;;;;;4.83;4.40;;;20.00;91.80;;;;;;5045902;28;21263;-83
2022/07/20 02:01:17;;;;;;;5.17;4.60;;;20.10;91.70;;;;;;5049970;28;20658;-83
2022/07/20 02:03:44;;;;;;;4.87;4.47;;;20.00;91.80;;;;;;5047628;28;21584;-84
2022/07/20 02:06:10;;;;;;;5.33;4.37;;;20.00;91.80;;;;;;5039915;28;21333;-83
2022/07/20 02:08:38;;;;;;;4.93;3.97;;;20.00;92.30;;;;;;5048594;28;20641;-84
2022/07/20 02:11:05;;;;;;;5.30;4.10;;;20.00;92.50;;;;;;5046416;28;20652;-83
2022/07/20 02:13:35;;;;;;;4.40;4.00;;;19.90;93.10;;;;;;5048120;28;20784;-83
2022/07/20 02:16:17;;;;;;;4.40;3.93;;;19.90;93.50;;;;;;5049034;28;20653;-83
2022/07/20 02:18:45;;;;;;;6.10;3.77;;;19.90;93.30;;;;;;5047520;28;20636;-83
2022/07/20 02:21:12;;;;;;;5.00;3.80;;;19.80;93.30;;;;;;5044516;28;20745;-83
2022/07/20 02:23:38;;;;;;;6.33;4.20;;;19.90;93.40;;;;;;5044273;28;20656;-83
2022/07/20 02:26:05;;;;;;;5.13;3.70;;;19.90;93.80;;;;;;5048755;28;20671;-83
2022/07/20 02:28:34;;;;;;;5.00;4.60;;;19.90;94.30;;;;;;5048462;28;20626;-83
2022/07/20 02:31:01;;;;;;;5.30;4.03;;;19.80;94.40;;;;;;5047469;28;20661;-83
2022/07/20 02:33:28;;;;;;;12.43;4.13;;;19.70;94.30;;;;;;5046181;28;20651;-83
2022/07/20 02:35:55;;;;;;;5.23;3.97;;;19.80;94.80;;;;;;5045504;28;20653;-83
2022/07/20 02:38:23;;;;;;;7.13;3.90;;;19.70;95.20;;;;;;5050932;28;20634;-83
2022/07/20 02:40:50;;;;;;;4.93;4.00;;;19.70;95.20;;;;;;5045191;28;20752;-83
2022/07/20 02:43:17;;;;;;;7.20;4.43;;;19.70;95.70;;;;;;5048574;28;20641;-83
2022/07/20 02:45:45;;;;;;;5.60;4.20;;;19.60;96.50;;;;;;5043776;28;20673;-83
2022/07/20 02:48:11;;;;;;;4.00;3.70;;;19.50;96.50;;;;;;5046017;28;20618;-83
2022/07/20 02:50:41;;;;;;;6.23;4.70;;;19.50;96.50;;;;;;5046425;28;20654;-83
2022/07/20 02:53:09;;;;;;;7.20;5.20;;;19.50;96.40;;;;;;5044660;28;21001;-83
2022/07/20 02:55:35;;;;;;;5.63;4.90;;;19.50;96.50;;;;;;5048054;28;20606;-83
2022/07/20 02:58:03;;;;;;;4.47;3.90;;;19.40;96.80;;;;;;5051098;28;20628;-83
2022/07/20 03:00:29;;;;;;;5.03;4.50;;;19.50;97.00;;;;;;5047986;28;20657;-83
2022/07/20 03:02:58;;;;;;;6.03;4.10;;;19.40;97.10;;;;;;5048260;28;21554;-84
2022/07/20 03:05:26;;;;;;;4.90;4.40;;;19.40;97.30;;;;;;5043331;28;20668;-83
2022/07/20 03:07:53;;;;;;;7.50;4.40;;;19.30;97.60;;;;;;5049158;28;20628;-83
2022/07/20 03:10:20;;;;;;;4.80;4.40;;;19.30;98.40;;;;;;5045826;28;20982;-83
2022/07/20 03:12:47;;;;;;;4.53;4.13;;;19.30;98.70;;;;;;5047459;28;20966;-83
2022/07/20 03:15:14;;;;;;;7.67;4.70;;;19.20;98.50;;;;;;5047952;28;20636;-83
2022/07/20 03:17:46;;;;;;;6.60;4.20;;;19.20;98.60;;;;;;5046112;28;21148;-84
2022/07/20 03:20:18;;;;;;;4.70;4.30;;;19.20;99.10;;;;;;5047499;28;20690;-84
2022/07/20 03:22:45;;;;;;;5.23;4.73;;;19.20;99.90;;;;;;5043904;28;20633;-83
2022/07/20 03:25:12;;;;;;;5.57;3.90;;;19.20;99.90;;;;;;5047724;28;20630;-83
2022/07/20 03:27:39;;;;;;;4.87;4.30;;;19.10;99.90;;;;;;5044371;28;20727;-83
2022/07/20 03:30:07;;;;;;;7.33;4.40;;;19.10;99.90;;;;;;5048352;28;20661;-84
2022/07/20 03:32:34;;;;;;;4.87;4.50;;;19.10;99.90;;;;;;5036384;28;20646;-84
2022/07/20 03:35:01;;;;;;;4.77;4.23;;;19.00;99.90;;;;;;5047372;28;20718;-83
2022/07/20 03:37:29;;;;;;;5.30;4.20;;;19.00;99.90;;;;;;5044751;28;21033;-84
2022/07/20 03:39:56;;;;;;;4.90;4.57;;;18.90;99.90;;;;;;5043916;28;20649;-84
2022/07/20 03:42:23;;;;;;;4.97;3.87;;;18.90;99.90;;;;;;5047261;28;20637;-84
2022/07/20 03:44:50;;;;;;;4.83;4.40;;;18.80;99.90;;;;;;5044339;28;20638;-84
2022/07/20 03:47:16;;;;;;;4.90;4.43;;;18.90;99.90;;;;;;5046758;28;20646;-84
2022/07/20 03:49:43;;;;;;;4.43;4.13;;;18.80;99.90;;;;;;5047876;28;20677;-84
2022/07/20 03:52:10;;;;;;;5.00;4.50;;;18.80;99.90;;;;;;5038654;28;20673;-83
2022/07/20 03:54:38;;;;;;;4.60;4.20;;;18.80;99.90;;;;;;5042725;28;20630;-83
2022/07/20 03:57:05;;;;;;;4.47;4.10;;;18.80;99.90;;;;;;5041510;28;20629;-83
2022/07/20 03:59:32;;;;;;;7.00;4.73;;;18.70;99.90;;;;;;5045270;28;20653;-82
2022/07/20 04:01:58;;;;;;;5.13;4.60;;;18.80;99.90;;;;;;5044084;28;21173;-83
2022/07/20 04:04:25;;;;;;;5.87;5.10;;;18.70;99.90;;;;;;5044780;28;20625;-83
2022/07/20 04:06:52;;;;;;;7.53;4.80;;;18.70;99.90;;;;;;5042259;28;20662;-83
2022/07/20 04:09:43;;;;;;;4.87;4.40;;;18.70;99.90;;;;;;5044728;28;21503;-83
2022/07/20 04:12:09;;;;;;;4.93;4.40;;;18.70;99.90;;;;;;5045518;28;21243;-83
2022/07/20 04:14:36;;;;;;;5.57;4.83;;;18.70;99.90;;;;;;5044015;28;20709;-83
2022/07/20 04:17:03;;;;;;;5.40;4.97;;;18.80;99.90;;;;;;5046910;28;20628;-83
2022/07/20 04:19:31;;;;;;;4.47;4.07;;;18.80;99.90;;;;;;5041572;28;20715;-83
2022/07/20 04:21:58;;;;;;;5.13;4.70;;;18.80;99.90;;;;;;5046163;28;20665;-83
2022/07/20 04:24:25;;;;;;;5.27;4.77;;;18.80;99.90;;;;;;5045358;28;20634;-83
2022/07/20 04:26:53;;;;;;;7.97;5.33;;;18.80;99.90;;;;;;5039430;28;20673;-83
2022/07/20 04:29:22;;;;;;;4.87;4.40;;;18.80;99.90;;;;;;5045729;28;20630;-83
2022/07/20 04:31:49;;;;;;;5.00;4.60;;;18.80;99.90;;;;;;5044317;28;20641;-82
2022/07/20 04:34:16;;;;;;;6.50;5.40;;;18.80;99.90;;;;;;5046045;28;20610;-83
2022/07/20 04:36:43;;;;;;;4.70;4.33;;;18.80;99.90;;;;;;5045457;28;20629;-83
2022/07/20 04:39:10;;;;;;;5.33;4.67;;;18.90;99.90;;;;;;5042576;28;21181;-83
2022/07/20 04:41:37;;;;;;;4.50;4.10;;;18.90;99.90;;;;;;5045304;28;21003;-83
2022/07/20 04:44:04;;;;;;;4.87;4.07;;;18.90;99.90;;;;;;5046096;28;21068;-83
2022/07/20 04:46:33;;;;;;;6.03;5.20;;;18.90;99.90;;;;;;5045272;28;20742;-83
2022/07/20 04:49:00;;;;;;;6.87;5.17;;;18.90;99.90;;;;;;5038661;28;21029;-84
2022/07/20 04:51:27;;;;;;;5.73;4.63;;;18.90;99.90;;;;;;5043329;28;20654;-83
2022/07/20 04:53:53;;;;;;;11.00;7.03;;;18.90;99.90;;;;;;5040768;28;21200;-82
2022/07/20 04:56:21;;;;;;;6.13;5.43;;;19.00;99.90;;;;;;5046961;28;20614;-83
2022/07/20 04:58:50;;;;;;;9.97;5.10;;;19.10;99.90;;;;;;5045323;28;21395;-83
2022/07/20 05:01:17;;;;;;;4.63;4.20;;;19.20;99.90;;;;;;5046391;28;20712;-83
2022/07/20 05:03:45;;;;;;;6.90;5.20;;;19.20;99.90;;;;;;5045046;28;20655;-84
2022/07/20 05:06:12;;;;;;;5.63;4.80;;;19.30;99.90;;;;;;5041162;28;20684;-83
2022/07/20 05:08:39;;;;;;;5.63;4.57;;;19.40;99.90;;;;;;5048738;28;20737;-83
2022/07/20 05:11:06;;;;;;;10.00;5.50;;;19.50;99.90;;;;;;5046002;28;21163;-83
2022/07/20 05:13:33;;;;;;;9.47;5.43;;;19.60;99.90;;;;;;5046839;28;20630;-83
2022/07/20 05:15:59;;;;;;;8.57;5.60;;;19.70;99.90;;;;;;5048039;28;20610;-83
2022/07/20 05:18:28;;;;;;;8.57;5.53;;;19.80;99.90;;;;;;5048692;28;20692;-83
2022/07/20 05:20:56;;;;;;;9.77;5.90;;;19.90;99.90;;;;;;5047563;28;20892;-83
2022/07/20 05:23:23;;;;;;;10.00;5.00;;;20.00;99.90;;;;;;5040148;28;20670;-83
2022/07/20 05:25:49;;;;;;;8.20;6.50;;;20.00;99.90;;;;;;5046881;28;20706;-82
2022/07/20 05:28:18;;;;;;;6.10;5.60;;;20.10;99.90;;;;;;5050506;28;20618;-83
2022/07/20 05:30:45;;;;;;;5.90;5.40;;;20.00;99.90;;;;;;5049519;28;20693;-83
2022/07/20 05:33:15;;;;;;;9.00;5.40;;;20.10;99.90;;;;;;5043973;28;20629;-85
2022/07/20 05:35:42;;;;;;;6.77;6.17;;;20.20;99.90;;;;;;5046908;28;20629;-84
2022/07/20 05:38:10;;;;;;;5.37;4.93;;;20.30;99.90;;;;;;5045202;28;20635;-84
2022/07/20 05:40:37;;;;;;;10.10;5.53;;;20.40;99.90;;;;;;5049527;28;20689;-84
2022/07/20 05:43:04;;;;;;;6.70;6.10;;;20.50;99.90;;;;;;5049095;28;21220;-84
2022/07/20 05:45:31;;;;;;;8.43;5.73;;;20.50;99.90;;;;;;5048637;28;20680;-85
2022/07/20 05:47:57;;;;;;;6.07;5.50;;;20.60;99.90;;;;;;5052312;28;20676;-84
2022/07/20 05:50:24;;;;;;;6.43;5.80;;;20.60;99.90;;;;;;5044978;28;20785;-83
2022/07/20 05:52:51;;;;;;;8.40;5.57;;;20.70;99.90;;;;;;5049774;28;20633;-84
2022/07/20 05:55:19;;;;;;;7.07;6.10;;;20.80;99.90;;;;;;5049971;28;20630;-82
2022/07/20 05:57:46;;;;;;;6.00;5.40;;;20.90;99.90;;;;;;5046056;28;21378;-83
2022/07/20 06:00:14;;;;;;;6.67;5.77;;;21.00;99.90;;;;;;5046970;28;21234;-84
2022/07/20 06:02:41;;;;;;;6.83;6.00;;;21.10;99.90;;;;;;5044344;28;20633;-84
2022/07/20 06:05:09;;;;;;;6.13;5.53;;;21.20;99.90;;;;;;5046775;28;20618;-84
2022/07/20 06:07:36;;;;;;;8.20;5.43;;;21.30;99.90;;;;;;5047535;28;20697;-81
2022/07/20 06:10:05;;;;;;;5.93;5.43;;;21.40;99.80;;;;;;5047645;28;20653;-84
2022/07/20 06:12:33;;;;;;;14.00;6.83;;;21.50;99.60;;;;;;5046482;28;20743;-84
2022/07/20 06:15:00;;;;;;;7.03;5.90;;;21.60;99.10;;;;;;5046972;28;21188;-84
2022/07/20 06:17:34;;;;;;;9.73;5.30;;;21.70;98.70;;;;;;5047824;28;20622;-83
2022/07/20 06:20:04;;;;;;;6.97;6.30;;;21.90;98.30;;;;;;5044194;28;20653;-83
2022/07/20 06:22:31;;;;;;;5.93;5.37;;;22.00;98.00;;;;;;5046744;28;20692;-83
2022/07/20 06:24:58;;;;;;;6.87;4.90;;;22.10;97.70;;;;;;5048096;28;21369;-83
2022/07/20 06:27:25;;;;;;;8.37;5.77;;;22.20;97.60;;;;;;5044517;28;21214;-84
2022/07/20 06:29:53;;;;;;;5.47;5.07;;;22.40;97.20;;;;;;5048255;28;20742;-84
2022/07/20 06:32:20;;;;;;;7.73;5.67;;;22.50;96.80;;;;;;5043630;28;20729;-84
2022/07/20 06:34:47;;;;;;;6.90;5.70;;;22.50;96.40;;;;;;5045178;28;20630;-84
2022/07/20 06:37:13;;;;;;;7.70;5.67;;;22.70;96.30;;;;;;5047865;28;20709;-84
2022/07/20 06:39:40;;;;;;;6.00;5.50;;;22.70;96.00;;;;;;5045521;28;20650;-84
2022/07/20 06:42:07;;;;;;;5.13;4.60;;;22.90;95.90;;;;;;5047853;28;20944;-84
2022/07/20 06:44:34;;;;;;;5.83;4.70;;;23.00;95.70;;;;;;5045145;28;20637;-84
2022/07/20 06:47:02;;;;;;;7.43;4.73;;;23.10;95.40;;;;;;5047099;28;20669;-84
2022/07/20 06:49:29;;;;;;;5.40;5.00;;;23.20;95.00;;;;;;5050687;28;20650;-84
2022/07/20 06:51:57;;;;;;;5.10;4.60;;;23.40;94.80;;;;;;5047712;28;20626;-84
2022/07/20 06:54:23;;;;;;;5.70;5.20;;;23.40;94.70;;;;;;5046319;28;20645;-84
2022/07/20 06:56:50;;;;;;;5.30;4.80;;;23.50;94.30;;;;;;5044996;28;20634;-84
2022/07/20 06:59:17;;;;;;;7.33;5.80;;;23.60;94.20;;;;;;5043811;28;20622;-84
2022/07/20 07:01:44;;;;;;;9.90;5.47;;;23.80;94.30;;;;;;5048596;28;20640;-83
2022/07/20 07:04:12;;;;;;;6.63;5.57;;;23.90;94.20;;;;;;5045414;28;20625;-84
2022/07/20 07:06:39;;;;;;;6.60;4.70;;;24.10;94.00;;;;;;5041364;28;20662;-84
2022/07/20 07:09:05;;;;;;;9.20;5.20;;;24.20;93.70;;;;;;5035584;28;20638;-84
2022/07/20 07:11:33;;;;;;;6.50;5.90;;;24.30;93.20;;;;;;5043218;28;20653;-83
2022/07/20 07:14:00;;;;;;;6.23;4.37;;;24.40;93.20;;;;;;5049051;28;21007;-84
2022/07/20 07:16:27;;;;;;;6.47;5.10;;;24.50;92.70;;;;;;5047861;28;20622;-84
2022/07/20 07:18:55;;;;;;;5.93;5.43;;;24.60;92.50;;;;;;5039766;28;20641;-83
2022/07/20 07:21:23;;;;;;;6.73;5.53;;;24.80;92.40;;;;;;5043542;28;20654;-83
2022/07/20 07:23:50;;;;;;;8.47;4.83;;;24.80;92.40;;;;;;5046918;28;20629;-83
2022/07/20 07:26:18;;;;;;;8.60;6.20;;;24.90;92.10;;;;;;5042599;28;20634;-83
2022/07/20 07:28:44;;;;;;;6.23;5.63;;;25.10;92.20;;;;;;5041484;28;20640;-83
2022/07/20 07:31:12;;;;;;;7.07;6.47;;;25.20;92.20;;;;;;5042698;28;20654;-83
2022/07/20 07:33:39;;;;;;;7.70;5.47;;;25.40;92.00;;;;;;5046338;28;20621;-84
2022/07/20 07:36:06;;;;;;;6.00;5.27;;;25.50;91.60;;;;;;5044534;28;20642;-83
2022/07/20 07:38:37;;;;;;;7.40;6.67;;;25.60;91.30;;;;;;5040700;28;20632;-83
2022/07/20 07:41:04;;;;;;;7.23;5.83;;;25.80;91.10;;;;;;5020816;28;20653;-83
2022/07/20 07:43:31;;;;;;;10.20;5.90;;;25.90;90.20;;;;;;5044049;28;21064;-83
2022/07/20 07:45:59;;;;;;;6.70;6.10;;;26.00;90.00;;;;;;5044105;28;21188;-83
2022/07/20 07:48:25;;;;;;;6.80;6.10;;;26.00;89.30;;;;;;5045614;28;20773;-83
2022/07/20 07:50:52;;;;;;;8.07;6.07;;;26.20;89.40;;;;;;5045000;28;21100;-83
2022/07/20 07:53:19;;;;;;;7.63;6.93;;;26.20;89.70;;;;;;5041583;28;20635;-83
2022/07/20 07:55:48;;;;;;;9.30;6.13;;;26.30;89.50;;;;;;5041280;28;20618;-83
2022/07/20 07:58:16;;;;;;;7.50;6.10;;;26.40;89.70;;;;;;5038517;28;20614;-83
2022/07/20 08:00:43;;;;;;;7.90;6.20;;;26.60;88.60;;;;;;5041748;28;20741;-81
2022/07/20 08:03:11;;;;;;;6.50;5.90;;;26.70;88.50;;;;;;5042448;28;20984;-82
2022/07/20 08:05:37;;;;;;;8.20;5.80;;;26.80;87.80;;;;;;5042331;28;20644;-82
2022/07/20 08:08:10;;;;;;;8.30;6.77;;;26.90;88.20;;;;;;5044681;28;20988;-82
2022/07/20 08:10:37;;;;;;;7.00;5.70;;;27.00;87.60;;;;;;5038704;28;20752;-82
2022/07/20 08:13:05;;;;;;;8.20;6.87;;;27.20;87.60;;;;;;5043518;28;20640;-82
2022/07/20 08:15:33;;;;;;;10.60;6.73;;;27.30;87.60;;;;;;5044071;28;21144;-82
2022/07/20 08:18:00;;;;;;;7.23;6.10;;;27.40;87.40;;;;;;5044659;28;20621;-82
2022/07/20 08:20:28;;;;;;;9.90;5.67;;;27.40;85.40;;;;;;5045263;28;20712;-81
2022/07/20 08:22:55;;;;;;;12.03;6.40;;;27.50;85.40;;;;;;5046150;28;20625;-82
2022/07/20 08:25:23;;;;;;;9.77;6.67;;;27.60;84.90;;;;;;5046509;28;20613;-82
2022/07/20 08:27:50;;;;;;;5.93;5.43;;;27.70;84.80;;;;;;5042059;28;21033;-82
2022/07/20 08:30:19;;;;;;;8.20;6.23;;;27.90;84.50;;;;;;5044676;28;20729;-82
2022/07/20 08:32:46;;;;;;;8.03;6.57;;;27.90;84.50;;;;;;5044241;28;20630;-82
2022/07/20 08:35:13;;;;;;;11.33;5.83;;;28.10;83.30;;;;;;5046197;28;20629;-82
2022/07/20 08:37:40;;;;;;;8.87;6.50;;;28.20;82.90;;;;;;5045506;28;20634;-82
2022/07/20 08:40:08;;;;;;;6.37;5.77;;;28.20;82.70;;;;;;5038426;28;20658;-82
2022/07/20 08:42:35;;;;;;;7.43;6.70;;;28.40;83.00;;;;;;5042347;28;20676;-82
2022/07/20 08:45:04;;;;;;;8.27;7.40;;;28.50;83.50;;;;;;5038391;28;20653;-82
2022/07/20 08:47:35;;;;;;;7.43;6.37;;;28.60;81.60;;;;;;5044770;28;20676;-82
2022/07/20 08:50:03;;;;;;;10.97;6.60;;;28.60;81.50;;;;;;5046654;28;20657;-82
2022/07/20 08:52:30;;;;;;;7.00;6.40;;;28.70;80.40;;;;;;5043056;28;20622;-82
2022/07/20 08:54:57;;;;;;;11.60;6.90;;;28.70;81.80;;;;;;5046219;28;20629;-82
2022/07/20 08:57:25;;;;;;;12.43;7.10;;;28.90;82.70;;;;;;5043118;28;20621;-82
2022/07/20 08:59:52;;;;;;;10.13;6.37;;;29.10;80.80;;;;;;5046731;28;20654;-82
2022/07/20 09:02:20;;;;;;;6.87;6.27;;;29.20;80.70;;;;;;5046176;28;20636;-82
2022/07/20 09:04:52;;;;;;;7.37;6.67;;;29.30;80.00;;;;;;5045411;28;21116;-82
2022/07/20 09:07:37;;;;;;;8.47;6.43;;;29.40;79.30;;;;;;5038952;28;20674;-82
2022/07/20 09:10:06;;;;;;;7.77;6.13;;;29.60;79.40;;;;;;5041082;28;21255;-82
2022/07/20 09:12:38;;;;;;;9.47;6.67;;;29.70;78.40;;;;;;5045449;28;20694;-82
2022/07/20 09:15:06;;;;;;;12.87;6.60;;;29.80;78.50;;;;;;5040177;28;20629;-82
2022/07/20 09:17:33;;;;;;;7.10;6.30;;;29.90;77.60;;;;;;5041495;28;20650;-82
2022/07/20 09:20:07;;;;;;;6.73;6.13;;;30.10;78.30;;;;;;5040637;28;20649;-82
2022/07/20 09:22:36;;;;;;;8.33;6.30;;;30.20;78.00;;;;;;5046836;28;20626;-82
2022/07/20 09:25:09;;;;;;;6.83;6.13;;;30.40;78.00;;;;;;5039702;28;20626;-83
2022/07/20 09:27:36;;;;;;;6.43;5.87;;;30.50;76.20;;;;;;5039174;28;21086;-82
2022/07/20 09:30:06;;;;;;;8.13;5.63;;;30.70;75.00;;;;;;5040121;28;20674;-83
2022/07/20 09:32:48;;;;;;;8.90;6.40;;;30.70;73.00;;;;;;5039113;28;20629;-83
2022/07/20 09:35:16;;;;;;;7.00;6.40;;;30.80;73.20;;;;;;5043204;28;20956;-82
2022/07/20 09:37:43;;;;;;;6.50;5.90;;;30.90;71.90;;;;;;5044980;28;20626;-83
2022/07/20 09:40:11;;;;;;;7.10;6.40;;;31.00;71.80;;;;;;5039252;28;20654;-83
2022/07/20 09:42:38;;;;;;;6.33;5.83;;;31.10;71.00;;;;;;5045956;28;21200;-83
2022/07/20 09:45:24;;;;;;;11.97;5.80;;;31.10;68.70;;;;;;5038783;28;20711;-82
2022/07/20 09:48:21;;;;;;;7.30;6.70;;;31.30;68.90;;;;;;5045708;28;20662;-83
2022/07/20 09:50:50;;;;;;;7.50;6.80;;;31.30;67.30;;;;;;5010044;28;21133;-83
2022/07/20 09:53:17;;;;;;;7.00;6.40;;;31.40;67.30;;;;;;5043651;28;20618;-83
2022/07/20 09:55:44;;;;;;;7.53;6.77;;;31.60;67.40;;;;;;5043216;28;20637;-83
2022/07/20 09:58:11;;;;;;;7.40;6.70;;;31.70;66.20;;;;;;5039967;28;20637;-83
2022/07/20 10:00:41;;;;;;;10.93;8.23;;;31.90;65.00;;;;;;5029930;28;20674;-83
2022/07/20 10:03:14;;;;;;;8.03;7.43;;;32.00;64.80;;;;;;5042736;28;20621;-83
2022/07/20 10:05:42;;;;;;;8.27;7.57;;;32.20;63.80;;;;;;5033192;28;20634;-83
2022/07/20 10:08:10;;;;;;;17.90;7.90;;;32.30;62.10;;;;;;5033837;28;20733;-83
2022/07/20 10:10:37;;;;;;;8.07;7.40;;;32.40;61.10;;;;;;5048105;28;20733;-83
2022/07/20 10:13:04;;;;;;;8.27;7.17;;;32.40;61.60;;;;;;5035724;28;20738;-83
2022/07/20 10:15:50;;;;;;;12.00;7.93;;;32.40;60.80;;;;;;5038295;28;20626;-83
2022/07/20 10:18:17;;;;;;;7.90;7.13;;;32.60;61.40;;;;;;5043514;28;21040;-83
2022/07/20 10:20:44;;;;;;;9.00;7.50;;;32.60;59.40;;;;;;5047781;28;20653;-82
2022/07/20 10:23:33;;;;;;;10.00;7.23;;;32.80;58.60;;;;;;5045507;28;20609;-83
2022/07/20 10:26:01;;;;;;;7.57;6.80;;;32.80;58.40;;;;;;5045750;28;20610;-82
2022/07/20 10:28:31;;;;;;;7.00;6.40;;;32.80;58.70;;;;;;5045991;28;21286;-83
2022/07/20 10:31:02;;;;;;;8.40;6.40;;;33.00;57.60;;;;;;5044954;28;20675;-83
2022/07/20 10:33:31;;;;;;;8.33;6.63;;;33.10;57.10;;;;;;5045838;28;20737;-83
2022/07/20 10:38:40;;;;;;;10.73;7.50;;;33.30;55.70;;;;;;5043033;28;20613;-83
2022/07/20 10:44:27;;;;;;;7.30;6.67;;;33.60;53.60;;;;;;5045375;28;20652;-83
2022/07/20 10:46:54;;;;;;;10.87;6.80;;;33.60;53.40;;;;;;5041233;28;20708;-82
2022/07/20 10:50:04;;;;;;;10.20;7.00;;;33.80;53.50;;;;;;5046635;28;20775;-83
2022/07/20 10:52:33;;;;;;;8.37;6.67;;;34.00;52.40;;;;;;5041676;28;20628;-83
2022/07/20 10:55:06;;;;;;;7.83;6.30;;;34.00;52.30;;;;;;5047084;28;20641;-82
2022/07/20 10:57:35;;;;;;;6.73;6.23;;;34.20;53.30;;;;;;5039563;28;20629;-83
2022/07/20 11:00:08;;;;;;;8.43;7.50;;;34.40;51.90;;;;;;5043816;28;20652;-82
2022/07/20 11:02:35;;;;;;;10.50;5.83;;;34.60;51.80;;;;;;5043671;28;20627;-84
2022/07/20 11:05:02;;;;;;;8.50;6.40;;;34.80;51.60;;;;;;5043682;28;20640;-82
2022/07/20 11:07:34;;;;;;;7.17;6.47;;;35.10;50.60;;;;;;5046299;28;20641;-83
2022/07/20 11:10:20;;;;;;;7.50;6.87;;;35.10;49.80;;;;;;5047649;28;20657;-82
2022/07/20 11:12:56;;;;;;;7.07;6.40;;;35.10;50.10;;;;;;5045809;28;20655;-82
2022/07/20 11:15:23;;;;;;;6.80;6.20;;;35.30;49.20;;;;;;5045466;28;20655;-83
2022/07/20 11:17:49;;;;;;;7.53;6.80;;;35.40;49.90;;;;;;5042331;28;20629;-82
2022/07/20 11:20:18;;;;;;;7.20;6.50;;;35.60;49.70;;;;;;5043725;28;21123;-83
2022/07/20 11:22:44;;;;;;;6.47;5.97;;;35.80;49.40;;;;;;5047266;28;20633;-83
2022/07/20 11:25:13;;;;;;;10.03;7.40;;;35.90;48.70;;;;;;5044396;28;20625;-83
2022/07/20 11:27:40;;;;;;;7.03;6.37;;;36.10;48.00;;;;;;5041426;28;20669;-82
2022/07/20 11:30:08;;;;;;;7.73;6.97;;;36.30;47.60;;;;;;5049343;28;20706;-83
2022/07/20 11:32:35;;;;;;;7.20;6.37;;;36.60;48.10;;;;;;5043581;28;20680;-83
2022/07/20 11:35:05;;;;;;;6.57;5.90;;;36.80;48.00;;;;;;5046278;28;20614;-83
2022/07/20 11:37:32;;;;;;;8.90;5.97;;;37.00;47.60;;;;;;5046294;28;20194;-83
2022/07/20 11:40:00;;;;;;;6.37;5.87;;;37.30;46.40;;;;;;5043622;28;20223;-83
2022/07/20 11:42:28;;;;;;;6.97;5.90;;;37.40;45.90;;;;;;5047335;28;20673;-83
2022/07/20 11:45:00;;;;;;;7.40;6.63;;;37.50;45.20;;;;;;5043678;28;20199;-83
2022/07/20 11:47:27;;;;;;;6.50;6.10;;;37.70;45.60;;;;;;5046792;28;20306;-83
2022/07/20 11:50:05;;;;;;;6.72;6.05;;;37.90;44.60;;;;;;5041611;28;20233;-83
2022/07/20 11:52:39;;;;;;;7.30;6.70;;;38.10;44.30;;;;;;5043120;28;20206;-84
2022/07/20 11:55:08;;;;;;;7.25;6.55;;;38.30;43.70;;;;;;5043526;28;20207;-83
2022/07/20 11:57:38;;;;;;;7.25;6.75;;;38.30;43.50;;;;;;5040287;28;20211;-83
2022/07/20 12:00:07;;;;;;;6.40;5.80;;;38.60;42.50;;;;;;5047333;28;20697;-83
2022/07/20 12:02:35;;;;;;;8.95;6.35;;;38.70;42.60;;;;;;5046395;28;20203;-83
2022/07/20 12:05:02;;;;;;;6.53;6.03;;;38.70;41.70;;;;;;5042079;28;20213;-83
2022/07/20 12:10:18;;;;;;;7.72;6.25;;;39.20;42.60;;;;;;5046259;28;20263;-84
2022/07/20 12:12:47;;;;;;;6.85;6.22;;;39.40;41.40;;;;;;5047015;28;20242;-83
2022/07/20 12:15:14;;;;;;;7.03;6.22;;;39.40;40.70;;;;;;5045925;28;20213;-83
2022/07/20 12:17:48;;;;;;;6.28;5.68;;;39.30;41.40;;;;;;5044664;28;20657;-83
2022/07/20 12:20:15;;;;;;;6.00;5.60;;;39.40;41.00;;;;;;5041885;28;20245;-83
2022/07/20 12:22:50;;;;;;;7.22;6.70;;;39.50;41.50;;;;;;5043670;28;20666;-84
2022/07/20 12:25:17;;;;;;;7.00;5.93;;;39.70;41.00;;;;;;5022587;28;20229;-83
2022/07/20 12:27:45;;;;;;;8.52;6.57;;;40.00;41.60;;;;;;5039143;28;20681;-84
2022/07/20 12:30:30;;;;;;;9.60;6.65;;;40.20;40.20;;;;;;5041642;28;20237;-84
2022/07/20 12:33:05;;;;;;;8.10;6.20;;;40.40;39.70;;;;;;5037629;28;20418;-84
2022/07/20 12:35:33;;;;;;;7.53;6.40;;;40.40;40.00;;;;;;5043107;28;20194;-84
2022/07/20 12:38:00;;;;;;;6.32;5.70;;;40.80;39.70;;;;;;5043407;28;20209;-84
2022/07/20 12:40:37;;;;;;;6.50;6.00;;;41.10;38.80;;;;;;5042501;28;20569;-84
2022/07/20 12:43:26;;;;;;;7.25;6.55;;;41.20;38.70;;;;;;5035211;28;20295;-84
2022/07/20 12:45:53;;;;;;;7.43;6.47;;;41.40;38.70;;;;;;5044172;28;20642;-84
2022/07/20 12:48:20;;;;;;;7.10;6.13;;;41.30;38.40;;;;;;5039102;28;20226;-84
2022/07/20 12:50:46;;;;;;;6.40;5.55;;;41.30;38.80;;;;;;5040164;28;20234;-84
2022/07/20 12:53:14;;;;;;;6.38;5.78;;;41.60;38.50;;;;;;5034672;28;20213;-84
2022/07/20 12:55:40;;;;;;;7.55;6.40;;;41.70;37.80;;;;;;5043783;28;20200;-84
2022/07/20 12:58:09;;;;;;;6.65;6.15;;;41.70;37.80;;;;;;5042354;28;20203;-84
2022/07/20 13:00:36;;;;;;;8.10;6.53;;;41.90;37.50;;;;;;5041287;28;20227;-84
2022/07/20 13:03:03;;;;;;;6.82;6.22;;;41.60;36.90;;;;;;5043956;28;20203;-84